Point Clair, Louisiana
Current Conditions -  °F | °C
As of 10:55 AM on Friday 31 Oct 2014 (Local Time) from KL38 Reporting Station
Clear Clear  
Wind Chill: 69°   Ceiling: Unl
Heat Index: 69°   Visibility: 10mi
Dew Point: 50°   Wind: 8mph
Humidity: 51%   Direction: 340°NNW
Pressure: 30.08"   Gusts: NA
Location:  30.215°N, 91.1157°W
Report Text: KL38 311555Z AUTO 34007KT 10SM CLR 21/10 A3008 RMK AO2 T02070101
Loading
Personal Weather Stations






























Interactive Weather Map
Tropical Storm Tracking
New forecast layout! Learn more

10-Day Weather Forecast

Advertisements
Track Severe Weather on mobile